createdAt,value
2022-10-23T00:04:54.936Z,13.19
2022-10-23T00:09:56.646Z,13.05
2022-10-23T00:14:58.375Z,13.01
2022-10-23T00:20:00.228Z,13.09
2022-10-23T00:25:02.122Z,13.00
2022-10-23T00:30:05.305Z,12.91
2022-10-23T00:35:07.317Z,12.94
2022-10-23T00:40:09.773Z,12.87
2022-10-23T00:45:14.572Z,12.72
2022-10-23T00:50:17.024Z,12.45
2022-10-23T00:55:21.897Z,12.40
2022-10-23T01:00:46.243Z,12.34
2022-10-23T01:06:00.309Z,12.37
2022-10-23T01:11:15.274Z,12.41
2022-10-23T01:16:23.604Z,12.44
2022-10-23T01:21:48.616Z,12.39
2022-10-23T01:27:10.853Z,12.32
2022-10-23T01:32:19.833Z,12.21
2022-10-23T01:37:28.471Z,12.09
2022-10-23T01:42:41.329Z,11.91
2022-10-23T01:47:45.197Z,11.89
2022-10-23T01:52:49.521Z,11.85
2022-10-23T01:57:53.383Z,11.89
2022-10-23T02:02:57.569Z,11.89
2022-10-23T02:08:07.431Z,11.99
2022-10-23T02:13:19.322Z,12.06
2022-10-23T02:18:33.545Z,11.98
2022-10-23T02:23:55.333Z,11.83
2022-10-23T02:29:14.408Z,11.73
2022-10-23T02:34:20.123Z,11.72
2022-10-23T02:39:24.286Z,11.60
2022-10-23T02:44:33.461Z,11.38
2022-10-23T02:49:49.004Z,11.29
2022-10-23T02:54:57.848Z,11.26
2022-10-23T03:00:04.868Z,11.14
2022-10-23T03:05:11.989Z,11.09
2022-10-23T03:10:14.506Z,11.13
2022-10-23T03:15:17.422Z,11.15
2022-10-23T03:20:19.212Z,11.16
2022-10-23T03:25:20.995Z,10.97
2022-10-23T03:30:22.689Z,10.93
2022-10-23T03:35:29.151Z,10.95
2022-10-23T03:40:31.313Z,10.75
2022-10-23T03:45:33.055Z,10.63
2022-10-23T03:50:35.800Z,10.40
2022-10-23T03:55:37.499Z,10.39
2022-10-23T04:00:39.333Z,10.54
2022-10-23T04:05:43.256Z,10.49
2022-10-23T04:10:45.342Z,10.37
2022-10-23T04:15:51.886Z,10.35
2022-10-23T04:20:54.017Z,10.22
2022-10-23T04:25:57.926Z,9.98
2022-10-23T04:31:01.294Z,10.10
2022-10-23T04:36:03.383Z,10.15
2022-10-23T04:41:05.218Z,10.12
2022-10-23T04:46:07.721Z,10.14
2022-10-23T04:51:10.382Z,10.29
2022-10-23T04:56:30.664Z,10.41
2022-10-23T05:01:39.265Z,10.54
2022-10-23T05:06:43.097Z,10.62
2022-10-23T05:11:56.650Z,10.67
2022-10-23T05:17:02.630Z,10.60
2022-10-23T05:22:05.070Z,10.61
2022-10-23T05:27:21.630Z,10.55
2022-10-23T05:32:27.367Z,10.50
2022-10-23T05:37:29.498Z,10.41
2022-10-23T05:42:53.977Z,10.52
2022-10-23T05:48:11.281Z,10.48
2022-10-23T05:53:40.239Z,10.27
2022-10-23T05:59:23.278Z,10.20
2022-10-23T06:04:43.530Z,10.12
2022-10-23T06:10:00.816Z,10.25
2022-10-23T06:15:03.561Z,10.42
2022-10-23T06:20:27.947Z,10.39
2022-10-23T06:25:45.095Z,10.47
2022-10-23T06:30:47.703Z,10.45
2022-10-23T06:35:49.556Z,10.38
2022-10-23T06:40:56.628Z,10.47
2022-10-23T06:46:10.231Z,10.37
2022-10-23T06:51:31.957Z,10.33
2022-10-23T06:56:35.095Z,10.35
2022-10-23T07:01:40.683Z,10.46
2022-10-23T07:06:44.547Z,10.57
2022-10-23T07:11:46.222Z,10.72
2022-10-23T07:16:48.124Z,10.76
2022-10-23T07:21:50.530Z,10.91
2022-10-23T07:27:09.458Z,11.08
2022-10-23T07:32:11.222Z,11.23
2022-10-23T07:37:31.839Z,11.45
2022-10-23T07:42:36.584Z,11.62
2022-10-23T07:47:38.452Z,11.77
2022-10-23T07:52:40.343Z,11.90
2022-10-23T07:57:47.019Z,12.00
2022-10-23T08:03:12.717Z,12.22
2022-10-23T08:08:14.832Z,12.42
2022-10-23T08:13:21.325Z,12.60
2022-10-23T08:18:40.927Z,12.78
2022-10-23T08:23:43.211Z,12.93
2022-10-23T08:28:45.296Z,13.08
2022-10-23T08:38:55.876Z,13.32
2022-10-23T08:44:13.361Z,13.45
2022-10-23T08:49:24.199Z,13.56
2022-10-23T08:54:40.787Z,13.68
2022-10-23T08:59:42.456Z,13.80
2022-10-23T09:04:47.715Z,13.99
2022-10-23T09:10:18.710Z,14.15
2022-10-23T09:15:42.284Z,14.28
2022-10-23T09:20:45.472Z,14.36
2022-10-23T09:25:49.240Z,14.46
2022-10-23T09:30:52.254Z,14.58
2022-10-23T09:35:58.417Z,14.70
2022-10-23T09:41:13.831Z,14.84
2022-10-23T09:46:15.669Z,15.01
2022-10-23T09:51:20.940Z,15.19
2022-10-23T09:56:30.432Z,15.33
2022-10-23T10:01:38.449Z,15.51
2022-10-23T10:07:02.001Z,15.72
2022-10-23T10:12:24.995Z,15.91
2022-10-23T10:17:49.971Z,16.09
2022-10-23T10:23:13.966Z,16.28
2022-10-23T10:28:41.724Z,16.49
2022-10-23T10:34:02.623Z,16.73
2022-10-23T10:39:15.690Z,16.97
2022-10-23T10:44:32.614Z,17.13
2022-10-23T10:50:00.573Z,17.29
2022-10-23T10:55:33.940Z,17.44
2022-10-23T11:00:35.775Z,17.64
2022-10-23T11:05:44.347Z,17.81
2022-10-23T11:10:53.204Z,17.94
2022-10-23T11:16:26.370Z,18.06
2022-10-23T11:21:41.077Z,18.18
2022-10-23T11:27:10.795Z,18.34
2022-10-23T11:32:50.228Z,18.50
2022-10-23T11:38:01.326Z,18.43
2022-10-23T11:43:03.098Z,18.50
2022-10-23T11:48:14.264Z,18.62
2022-10-23T11:53:38.499Z,18.85
2022-10-23T11:58:56.495Z,19.01
2022-10-23T12:04:01.197Z,18.79
2022-10-23T12:09:18.366Z,18.73
2022-10-23T12:14:33.418Z,18.70
2022-10-23T12:19:47.261Z,18.79
2022-10-23T12:25:15.819Z,18.93
2022-10-23T12:30:28.880Z,19.11
2022-10-23T12:35:36.627Z,19.12
2022-10-23T12:40:38.550Z,19.07
2022-10-23T12:45:42.481Z,18.97
2022-10-23T12:50:54.513Z,18.98
2022-10-23T13:01:05.544Z,18.98
2022-10-23T13:06:10.149Z,19.04
2022-10-23T13:11:16.740Z,19.08
2022-10-23T13:16:23.777Z,19.09
2022-10-23T13:21:28.618Z,19.15
2022-10-23T13:26:44.844Z,19.15
2022-10-23T13:31:47.182Z,19.14
2022-10-23T13:37:04.084Z,19.08
2022-10-23T13:42:15.439Z,19.11
2022-10-23T13:47:17.528Z,19.17
2022-10-23T13:52:23.325Z,19.21
2022-10-23T13:57:25.969Z,19.24
2022-10-23T14:02:27.723Z,19.27
2022-10-23T14:07:29.671Z,19.42
2022-10-23T14:12:31.507Z,19.50
2022-10-23T14:17:34.702Z,19.47
2022-10-23T14:22:36.682Z,19.59
2022-10-23T14:27:38.783Z,19.52
2022-10-23T14:32:41.090Z,19.42
2022-10-23T14:37:43.118Z,19.43
2022-10-23T14:42:45.289Z,19.27
2022-10-23T14:47:47.322Z,19.18
2022-10-23T14:52:49.065Z,19.06
2022-10-23T14:57:55.673Z,18.99
2022-10-23T15:02:57.516Z,18.87
2022-10-23T15:07:59.266Z,18.79
2022-10-23T15:13:00.899Z,18.66
2022-10-23T15:18:02.617Z,18.59
2022-10-23T15:23:04.371Z,18.35
2022-10-23T15:28:06.143Z,18.10
2022-10-23T15:33:07.846Z,17.79
2022-10-23T15:38:09.481Z,17.57
2022-10-23T15:43:15.822Z,17.41
2022-10-23T15:48:17.547Z,17.17
2022-10-23T15:53:19.247Z,17.01
2022-10-23T15:58:20.875Z,17.03
2022-10-23T16:03:22.639Z,16.83
2022-10-23T16:08:26.050Z,16.70
2022-10-23T16:13:28.197Z,16.77
2022-10-23T16:18:29.859Z,16.72
2022-10-23T16:23:33.279Z,16.72
2022-10-23T16:28:35.107Z,16.72
2022-10-23T16:33:36.807Z,16.71
2022-10-23T16:38:38.411Z,16.66
2022-10-23T16:43:40.248Z,16.53
2022-10-23T16:49:02.845Z,16.52
2022-10-23T16:54:05.004Z,16.44
2022-10-23T16:59:06.964Z,16.27
2022-10-23T17:04:08.730Z,16.26
2022-10-23T17:09:10.474Z,16.21
2022-10-23T17:14:17.386Z,16.19
2022-10-23T17:24:46.239Z,16.14
2022-10-23T17:29:50.632Z,16.14
2022-10-23T17:34:52.332Z,16.12
2022-10-23T17:39:53.994Z,16.03
2022-10-23T17:44:55.679Z,16.04
2022-10-23T17:49:57.402Z,16.08
2022-10-23T17:54:59.206Z,15.91
2022-10-23T18:00:00.931Z,15.60
2022-10-23T18:05:02.547Z,15.65
2022-10-23T18:10:05.323Z,15.68
2022-10-23T18:15:07.307Z,15.66
2022-10-23T18:20:10.759Z,15.49
2022-10-23T18:25:12.394Z,15.45
2022-10-23T18:30:14.384Z,15.32
2022-10-23T18:35:16.567Z,15.39
2022-10-23T18:40:18.507Z,15.45
2022-10-23T18:45:20.273Z,15.40
2022-10-23T18:50:21.925Z,15.49
2022-10-23T18:55:23.610Z,15.49
2022-10-23T19:00:25.271Z,15.45
2022-10-23T19:05:26.948Z,15.45
2022-10-23T19:10:31.533Z,15.49
2022-10-23T19:15:35.816Z,15.44
2022-10-23T19:20:37.762Z,15.39
2022-10-23T19:25:39.571Z,15.37
2022-10-23T19:30:41.353Z,15.34
2022-10-23T19:35:43.059Z,15.33
2022-10-23T19:40:44.972Z,15.34
2022-10-23T19:45:46.751Z,15.41
2022-10-23T19:50:48.743Z,15.23
2022-10-23T19:55:50.441Z,15.21
2022-10-23T20:00:52.115Z,15.22
2022-10-23T20:05:53.811Z,15.26
2022-10-23T20:15:57.187Z,15.21
2022-10-23T20:21:02.357Z,15.30
2022-10-23T20:26:08.816Z,15.42
2022-10-23T20:31:11.566Z,15.45
2022-10-23T20:36:30.368Z,15.43
2022-10-23T20:41:33.687Z,15.43
2022-10-23T20:46:35.635Z,15.45
2022-10-23T20:51:37.550Z,15.47
2022-10-23T20:56:39.551Z,15.43
2022-10-23T21:01:43.719Z,15.43
2022-10-23T21:07:04.724Z,15.32
2022-10-23T21:12:09.001Z,15.35
2022-10-23T21:17:16.436Z,15.44
2022-10-23T21:22:18.129Z,15.53
2022-10-23T21:27:19.909Z,15.51
2022-10-23T21:32:21.636Z,15.53
2022-10-23T21:37:24.999Z,15.48
2022-10-23T21:42:26.678Z,15.46
2022-10-23T21:47:28.373Z,15.41
2022-10-23T21:52:30.063Z,15.24
2022-10-23T21:57:32.817Z,15.21
2022-10-23T22:02:34.545Z,15.26
2022-10-23T22:07:36.475Z,15.35
2022-10-23T22:12:38.277Z,15.34
2022-10-23T22:17:40.198Z,15.35
2022-10-23T22:22:41.809Z,15.44
2022-10-23T22:27:43.748Z,15.66
2022-10-23T22:32:45.975Z,15.93
2022-10-23T22:37:47.982Z,16.06
2022-10-23T22:42:49.775Z,16.20
2022-10-23T22:47:51.463Z,16.30
2022-10-23T22:52:53.099Z,16.38
2022-10-23T22:57:54.802Z,16.45
2022-10-23T23:02:58.870Z,16.54
2022-10-23T23:08:00.806Z,16.59
2022-10-23T23:13:02.535Z,16.59
2022-10-23T23:18:04.260Z,16.44
2022-10-23T23:23:06.606Z,16.25
2022-10-23T23:28:08.374Z,16.02
2022-10-23T23:33:12.113Z,15.80
2022-10-23T23:38:14.294Z,15.87
2022-10-23T23:43:16.453Z,15.77
2022-10-23T23:48:18.102Z,15.80
2022-10-23T23:53:19.805Z,15.88
2022-10-23T23:58:21.901Z,16.02
